Time;durP1;ratioP1;P1;durP2;ratioP2;P2;SDS_P1;SDS_P2;PMS_P1;PMS_P2;Temp;Humidity;BMP_temperature;BMP_pressure;BME280_temperature;BME280_humidity;BME280_pressure;Samples;Min_cycle;Max_cycle;Signal;HPM_P1;HPM_P2
2022/06/12 00:01:25;;;;;;;3.13;1.20;;;;;;;22.18;47.33;102221.69;5089643;28;20024;-63
2022/06/12 00:03:51;;;;;;;2.72;1.17;;;;;;;22.14;46.88;102221.16;5107880;28;20057;-63
2022/06/12 00:06:17;;;;;;;2.38;1.48;;;;;;;22.16;46.72;102221.81;5107871;28;20056;-63
2022/06/12 00:08:43;;;;;;;2.85;1.20;;;;;;;22.15;46.87;102217.44;5108125;28;20032;-63
2022/06/12 00:11:10;;;;;;;2.70;1.20;;;;;;;22.09;46.59;102214.47;5107598;28;20024;-64
2022/06/12 00:13:41;;;;;;;2.80;1.20;;;;;;;22.10;46.40;102214.31;5089694;28;20024;-63
2022/06/12 00:16:08;;;;;;;2.00;1.23;;;;;;;22.14;46.27;102225.72;5089469;28;20051;-63
2022/06/12 00:18:34;;;;;;;3.28;1.13;;;;;;;22.12;46.33;102222.28;5107972;28;20350;-63
2022/06/12 00:21:12;;;;;;;3.38;1.77;;;;;;;22.12;46.47;102217.75;5107596;28;20019;-63
2022/06/12 00:24:02;;;;;;;2.67;1.13;;;;;;;22.11;46.04;102216.00;5119583;28;20027;-64
2022/06/12 00:26:32;;;;;;;3.97;1.50;;;;;;;22.11;45.88;102220.59;5113784;28;20075;-63
2022/06/12 00:29:11;;;;;;;3.55;1.30;;;;;;;22.10;46.13;102227.84;5107687;28;20031;-64
2022/06/12 00:31:38;;;;;;;2.05;1.42;;;;;;;22.08;46.20;102219.03;5106714;28;20028;-62
2022/06/12 00:34:04;;;;;;;3.72;1.30;;;;;;;22.08;45.99;102227.16;5107469;28;20480;-62
2022/06/12 00:36:31;;;;;;;2.88;1.00;;;;;;;22.07;46.04;102222.75;5124775;28;20042;-62
2022/06/12 00:38:56;;;;;;;3.47;1.20;;;;;;;22.07;45.91;102219.19;5127756;28;20031;-64
2022/06/12 00:41:23;;;;;;;3.13;1.42;;;;;;;22.06;45.88;102222.91;5127467;28;20139;-62
2022/06/12 00:43:49;;;;;;;3.63;1.20;;;;;;;22.06;45.56;102217.50;5127453;28;20042;-63
2022/06/12 00:46:35;;;;;;;3.25;1.35;;;;;;;22.06;45.73;102218.34;5126680;28;20699;-63
2022/06/12 00:49:18;;;;;;;2.50;1.15;;;;;;;22.05;45.62;102215.81;5127648;28;20496;-63
2022/06/12 00:51:46;;;;;;;2.60;1.25;;;;;;;22.03;45.79;102215.94;5127360;28;20048;-63
2022/06/12 00:54:12;;;;;;;3.08;1.23;;;;;;;22.02;45.55;102214.25;5109292;28;20035;-63
2022/06/12 00:56:42;;;;;;;3.92;1.17;;;;;;;22.03;45.56;102217.81;5127133;28;20028;-63
2022/06/12 00:59:14;;;;;;;2.28;1.10;;;;;;;22.02;45.69;102216.13;5127550;28;20186;-63
2022/06/12 01:01:49;;;;;;;2.25;1.00;;;;;;;22.00;45.75;102201.88;5126597;28;20020;-63
2022/06/12 01:07:02;;;;;;;2.72;1.33;;;;;;;22.01;45.57;102198.19;5115572;28;20031;-63
2022/06/12 01:09:30;;;;;;;;;;;;;;;21.99;45.55;102200.19;5109349;28;20032;-63
2022/06/12 01:11:58;;;;;;;2.15;1.33;;;;;;;21.98;45.69;102193.06;5103893;28;19934;-63
2022/06/12 01:14:29;;;;;;;3.55;1.27;;;;;;;21.95;45.47;102203.19;5088479;28;20054;-63
2022/06/12 01:16:56;;;;;;;2.90;1.00;;;;;;;21.96;45.29;102204.03;5095122;28;20023;-62
2022/06/12 01:19:35;;;;;;;3.90;1.58;;;;;;;21.95;45.40;102200.47;5127083;28;20048;-63
2022/06/12 01:22:39;;;;;;;2.58;1.20;;;;;;;21.94;45.07;102196.09;5090358;28;20114;-63
2022/06/12 01:25:16;;;;;;;2.83;1.23;;;;;;;21.90;45.19;102197.41;5074947;28;20480;-63
2022/06/12 01:28:06;;;;;;;2.13;1.10;;;;;;;21.91;45.10;102190.97;5088069;28;20039;-63
2022/06/12 01:30:40;;;;;;;2.90;1.35;;;;;;;21.93;45.43;102198.97;5106097;28;20020;-62
2022/06/12 01:33:20;;;;;;;2.67;1.15;;;;;;;21.93;45.11;102197.09;5088118;28;20067;-63
2022/06/12 01:35:59;;;;;;;2.47;1.35;;;;;;;21.93;45.18;102197.09;5088119;28;20034;-62
2022/06/12 01:38:38;;;;;;;2.90;1.42;;;;;;;21.93;45.01;102196.25;5118296;28;20102;-62
2022/06/12 01:41:17;;;;;;;3.35;1.30;;;;;;;21.92;45.48;102198.13;5108333;28;20416;-62
2022/06/12 01:43:48;;;;;;;3.55;1.42;;;;;;;21.91;45.11;102192.84;5126522;28;20027;-63
2022/06/12 01:46:20;;;;;;;2.83;1.50;;;;;;;21.91;45.09;102195.53;5125247;28;20035;-62
2022/06/12 01:49:10;;;;;;;2.40;1.30;;;;;;;21.90;45.09;102183.84;5126411;28;20028;-62
2022/06/12 01:52:03;;;;;;;4.38;1.58;;;;;;;21.90;45.20;102191.97;5107982;28;20020;-62
2022/06/12 01:54:54;;;;;;;2.38;1.40;;;;;;;21.90;45.30;102185.72;5097669;28;20039;-62
2022/06/12 01:57:27;;;;;;;3.28;1.45;;;;;;;21.88;45.16;102183.19;5115085;28;20039;-62
2022/06/12 02:00:06;;;;;;;3.00;1.95;;;;;;;21.88;45.03;102182.34;5126201;28;20046;-62
2022/06/12 02:02:37;;;;;;;4.22;1.65;;;;;;;21.88;45.32;102179.63;5125793;28;20043;-62
2022/06/12 02:05:06;;;;;;;3.45;1.60;;;;;;;21.88;45.12;102187.75;5115747;28;20020;-62
2022/06/12 02:07:39;;;;;;;1.63;1.05;;;;;;;21.87;45.21;102186.88;5105341;28;20016;-61
2022/06/12 02:10:10;;;;;;;1.95;1.00;;;;;;;21.86;45.22;102182.47;5087407;28;20035;-62
2022/06/12 02:15:36;;;;;;;3.53;1.63;;;;;;;21.85;45.03;102177.22;5110412;28;20092;-62
2022/06/12 02:18:08;;;;;;;2.22;1.30;;;;;;;21.80;45.18;102169.59;5125575;28;20023;-63
2022/06/12 02:20:36;;;;;;;1.77;0.90;;;;;;;21.84;44.78;102178.25;5125794;28;20045;-63
2022/06/12 02:23:06;;;;;;;2.10;1.30;;;;;;;21.75;44.96;102169.22;5107613;28;20050;-63
2022/06/12 02:25:34;;;;;;;2.35;1.15;;;;;;;21.83;45.08;102179.22;5107211;28;20027;-63
2022/06/12 02:28:04;;;;;;;2.03;1.13;;;;;;;21.79;45.13;102178.72;5107598;28;20054;-63
2022/06/12 02:30:34;;;;;;;1.85;1.15;;;;;;;21.82;44.85;102180.25;5090545;28;20034;-63
2022/06/12 02:33:27;;;;;;;2.63;1.38;;;;;;;21.82;44.94;102174.81;5125477;28;20049;-62
2022/06/12 02:36:26;;;;;;;4.57;1.40;;;;;;;21.80;44.77;102177.69;5102541;28;20453;-62
2022/06/12 02:38:56;;;;;;;;;;;;;;;21.80;44.82;102176.84;5076330;28;20036;-62
2022/06/12 02:41:50;;;;;;;3.10;1.58;;;;;;;21.79;44.73;102176.00;5086965;28;19916;-63
2022/06/12 02:44:40;;;;;;;2.45;1.40;;;;;;;21.78;44.93;102177.00;5048535;28;20074;-63
2022/06/12 02:47:13;;;;;;;4.68;1.30;;;;;;;21.77;44.62;102180.72;5078958;28;20074;-63
2022/06/12 02:49:40;;;;;;;2.50;1.50;;;;;;;21.74;44.74;102174.75;5087336;28;20092;-63
2022/06/12 02:52:59;;;;;;;2.53;1.20;;;;;;;21.76;44.92;102184.44;5087201;28;20024;-62
2022/06/12 02:55:29;;;;;;;1.98;1.15;;;;;;;21.75;44.81;102174.63;5042291;28;20054;-62
2022/06/12 02:58:25;;;;;;;2.47;1.38;;;;;;;21.75;44.77;102177.31;5027733;28;20044;-62
2022/06/12 03:00:55;;;;;;;2.20;1.10;;;;;;;21.74;44.59;102169.34;5025911;28;20042;-61
2022/06/12 03:03:32;;;;;;;2.40;1.33;;;;;;;21.74;44.54;102172.06;5017769;28;20030;-61
2022/06/12 03:05:59;;;;;;;2.60;0.90;;;;;;;21.73;44.59;102171.22;5026283;28;20038;-63
2022/06/12 03:08:29;;;;;;;2.67;1.15;;;;;;;21.71;44.58;102167.81;5010014;28;20075;-63
2022/06/12 03:10:58;;;;;;;2.95;1.13;;;;;;;21.73;44.64;102165.78;5026271;28;20033;-63
2022/06/12 03:13:27;;;;;;;3.17;1.20;;;;;;;21.72;44.59;102164.09;5028471;28;20046;-63
2022/06/12 03:15:55;;;;;;;1.67;1.15;;;;;;;21.71;44.59;102165.13;5045570;28;20033;-62
2022/06/12 03:18:25;;;;;;;3.35;1.48;;;;;;;21.71;44.68;102168.66;5046172;28;20061;-62
2022/06/12 03:21:16;;;;;;;3.13;1.42;;;;;;;21.71;44.67;102171.38;5046095;28;20100;-61
2022/06/12 03:24:17;;;;;;;4.25;1.25;;;;;;;21.71;44.53;102176.78;5029948;28;20037;-62
2022/06/12 03:27:03;;;;;;;3.03;1.42;;;;;;;21.67;44.69;102169.13;5097751;28;20044;-62
2022/06/12 03:30:06;;;;;;;3.20;1.20;;;;;;;21.70;44.66;102177.78;5108464;28;20023;-62
2022/06/12 03:32:42;;;;;;;3.65;1.40;;;;;;;21.69;44.60;102177.94;5108121;28;20036;-63
2022/06/12 03:35:25;;;;;;;2.55;1.00;;;;;;;21.68;44.41;102173.53;5090229;28;20031;-63
2022/06/12 03:38:17;;;;;;;4.00;1.40;;;;;;;21.62;44.63;102168.72;5098272;28;20103;-62
2022/06/12 03:40:42;;;;;;;2.10;0.98;;;;;;;21.67;44.80;102179.97;5110290;28;20041;-62
2022/06/12 03:43:16;;;;;;;2.78;1.15;;;;;;;21.66;44.57;102172.81;5128647;28;20040;-62
2022/06/12 03:46:21;;;;;;;2.33;1.00;;;;;;;21.67;44.74;102169.13;5110541;28;20088;-62
2022/06/12 03:49:02;;;;;;;1.98;1.00;;;;;;;21.66;44.70;102170.13;5086927;28;20042;-62
2022/06/12 03:51:37;;;;;;;1.73;1.23;;;;;;;21.65;44.50;102176.53;5110287;28;20027;-63
2022/06/12 03:54:14;;;;;;;2.65;1.27;;;;;;;21.65;44.39;102184.66;5110646;28;20043;-63
2022/06/12 03:59:48;;;;;;;2.28;0.95;;;;;;;21.64;44.54;102166.75;5128922;28;20090;-63
2022/06/12 04:02:17;;;;;;;2.78;1.35;;;;;;;21.63;44.72;102170.47;5105556;28;20362;-62
2022/06/12 04:04:44;;;;;;;1.92;1.00;;;;;;;21.62;44.61;102164.19;5073006;28;20503;-62
2022/06/12 04:07:12;;;;;;;2.20;1.05;;;;;;;21.57;44.58;102158.38;5107759;28;20027;-63
2022/06/12 04:09:42;;;;;;;2.28;1.10;;;;;;;21.63;44.71;102184.00;5089581;28;20028;-63
2022/06/12 04:12:13;;;;;;;2.15;1.20;;;;;;;21.56;44.67;102164.81;5098084;28;20029;-63
2022/06/12 04:14:45;;;;;;;1.98;1.23;;;;;;;21.62;44.95;102174.16;5109925;28;20020;-63
2022/06/12 04:17:10;;;;;;;1.40;0.95;;;;;;;21.60;44.56;102174.31;5127301;28;20032;-62
2022/06/12 04:19:58;;;;;;;3.65;1.42;;;;;;;21.62;44.63;102180.44;5127472;28;20043;-63
2022/06/12 04:22:25;;;;;;;2.83;1.15;;;;;;;21.62;44.92;102179.56;5127774;28;20442;-63
2022/06/12 04:24:56;;;;;;;1.98;1.00;;;;;;;21.61;44.86;102181.41;5109835;28;20122;-63
2022/06/12 04:27:29;;;;;;;2.40;1.48;;;;;;;21.49;44.71;102157.47;5109624;28;20028;-63
2022/06/12 04:29:57;;;;;;;3.28;1.45;;;;;;;21.62;44.71;102176.84;5090553;28;20024;-62
2022/06/12 04:32:24;;;;;;;2.83;1.77;;;;;;;21.57;44.74;102169.19;5107000;28;20024;-63
2022/06/12 04:34:50;;;;;;;2.95;1.17;;;;;;;21.60;45.05;102168.91;5108493;28;20028;-63
2022/06/12 04:37:19;;;;;;;2.53;1.02;;;;;;;21.60;44.97;102171.59;5107145;28;20032;-63
2022/06/12 04:39:45;;;;;;;3.35;1.17;;;;;;;21.60;44.99;102170.75;5107618;28;20074;-63
2022/06/12 04:42:14;;;;;;;4.45;1.30;;;;;;;21.60;44.90;102168.91;5107072;28;20048;-63
2022/06/12 04:44:40;;;;;;;3.08;1.20;;;;;;;21.59;45.02;102167.22;5107372;28;20024;-63
2022/06/12 04:47:06;;;;;;;4.82;1.98;;;;;;;21.59;45.04;102169.91;5124108;28;20492;-63
2022/06/12 04:49:33;;;;;;;2.50;1.27;;;;;;;21.58;45.08;102161.94;5127766;28;20027;-62
2022/06/12 04:52:00;;;;;;;2.70;1.17;;;;;;;21.60;45.00;102170.75;5108922;28;20032;-63
2022/06/12 04:54:28;;;;;;;4.25;1.95;;;;;;;21.60;45.10;102176.16;5127522;28;20066;-63
2022/06/12 04:56:53;;;;;;;5.70;1.65;;;;;;;21.60;44.80;102171.59;5111027;28;20028;-62
2022/06/12 04:59:19;;;;;;;2.50;1.15;;;;;;;21.54;44.93;102164.13;5106914;28;20024;-63
2022/06/12 05:01:46;;;;;;;2.85;1.30;;;;;;;21.55;44.99;102162.25;5106427;28;20020;-63
2022/06/12 05:04:11;;;;;;;2.67;1.20;;;;;;;21.60;45.37;102166.19;5106320;28;20019;-63
2022/06/12 05:06:38;;;;;;;2.95;1.10;;;;;;;21.60;45.54;102171.59;5110231;28;20011;-63
2022/06/12 05:09:04;;;;;;;1.83;1.10;;;;;;;21.50;45.10;102146.50;5127148;28;20026;-63
2022/06/12 05:11:30;;;;;;;3.38;1.30;;;;;;;21.60;45.15;102160.78;5116227;28;20110;-63
2022/06/12 05:13:55;;;;;;;3.92;2.38;;;;;;;21.60;45.22;102160.78;5126750;28;20027;-63
2022/06/12 05:16:30;;;;;;;3.13;1.15;;;;;;;21.39;45.19;102139.44;5126040;28;20019;-63
2022/06/12 05:18:55;;;;;;;2.85;1.20;;;;;;;21.61;45.22;102161.63;5127015;28;20043;-63
2022/06/12 05:21:21;;;;;;;2.78;1.48;;;;;;;21.60;45.25;102168.91;5126007;28;20023;-63
2022/06/12 05:23:47;;;;;;;2.72;1.17;;;;;;;21.60;45.42;102166.19;5126988;28;20489;-63
2022/06/12 05:26:16;;;;;;;4.82;1.52;;;;;;;21.62;45.34;102176.84;5126490;28;20023;-62
2022/06/12 05:28:42;;;;;;;2.92;1.45;;;;;;;21.61;45.21;102167.88;5126641;28;20028;-63
2022/06/12 05:31:07;;;;;;;3.30;1.30;;;;;;;21.62;45.53;102172.31;5097179;28;20119;-62
2022/06/12 05:33:32;;;;;;;3.15;1.27;;;;;;;21.61;45.14;102178.72;5106413;28;20067;-63
2022/06/12 05:35:57;;;;;;;3.35;1.60;;;;;;;21.51;45.38;102155.47;5106180;28;20552;-63
2022/06/12 05:38:24;;;;;;;3.20;1.05;;;;;;;21.58;45.29;102165.50;5106002;28;20649;-63
2022/06/12 05:40:49;;;;;;;3.80;1.63;;;;;;;21.59;45.46;102174.47;5105961;28;20016;-63
2022/06/12 05:43:14;;;;;;;3.38;1.20;;;;;;;21.60;45.68;102171.59;5105630;28;20072;-63
2022/06/12 05:45:40;;;;;;;5.70;1.90;;;;;;;21.60;45.28;102174.31;5105911;28;20065;-63
2022/06/12 05:48:09;;;;;;;4.55;1.58;;;;;;;21.60;45.37;102176.16;5105364;28;20077;-63
2022/06/12 05:50:43;;;;;;;3.65;1.38;;;;;;;21.55;45.51;102167.69;5092111;28;20015;-63
2022/06/12 05:53:09;;;;;;;3.80;1.35;;;;;;;21.59;45.75;102161.78;5126357;28;20027;-63
2022/06/12 05:55:35;;;;;;;4.53;1.30;;;;;;;21.60;45.81;102162.63;5126316;28;20037;-63
2022/06/12 05:58:00;;;;;;;5.10;1.50;;;;;;;21.60;45.83;102168.91;5126027;28;20571;-63
2022/06/12 06:00:28;;;;;;;5.22;1.63;;;;;;;21.59;45.74;102172.63;5107818;28;20023;-63
2022/06/12 06:02:53;;;;;;;4.13;1.40;;;;;;;21.59;45.55;102169.91;5125663;28;20066;-63
2022/06/12 06:05:19;;;;;;;4.10;1.70;;;;;;;21.59;45.85;102172.63;5126099;28;20380;-63
2022/06/12 06:07:44;;;;;;;4.63;1.60;;;;;;;21.59;46.03;102178.03;5107619;28;20027;-63
2022/06/12 06:10:15;;;;;;;3.75;1.30;;;;;;;21.60;46.15;102178.88;5125917;28;20019;-63
2022/06/12 06:12:40;;;;;;;4.82;1.80;;;;;;;21.57;46.04;102184.59;5111986;28;20028;-63
2022/06/12 06:15:06;;;;;;;5.47;1.88;;;;;;;21.59;46.26;102191.56;5087323;28;20055;-63
2022/06/12 06:17:32;;;;;;;4.20;1.60;;;;;;;21.59;46.04;102186.16;5104454;28;20020;-63
2022/06/12 06:19:57;;;;;;;3.38;1.77;;;;;;;21.60;46.05;102187.00;5105660;28;20038;-63
2022/06/12 06:22:22;;;;;;;5.57;1.75;;;;;;;21.58;46.17;102187.16;5105235;28;20016;-63
2022/06/12 06:24:47;;;;;;;3.05;1.45;;;;;;;21.58;46.30;102186.28;5105420;28;20028;-63
2022/06/12 06:27:14;;;;;;;7.68;2.42;;;;;;;21.58;46.33;102184.47;5105185;28;20464;-63
2022/06/12 06:29:39;;;;;;;7.50;1.70;;;;;;;21.59;46.57;102190.72;5105493;28;20028;-63
2022/06/12 06:32:07;;;;;;;4.57;2.03;;;;;;;21.58;46.37;102189.88;5104690;28;20047;-63
2022/06/12 06:34:33;;;;;;;4.20;1.73;;;;;;;21.59;46.36;102190.72;5105653;28;20063;-63
2022/06/12 06:36:59;;;;;;;3.63;1.58;;;;;;;21.59;46.72;102188.84;5105154;28;20281;-63
2022/06/12 06:39:24;;;;;;;4.57;1.45;;;;;;;21.58;46.75;102192.59;5105371;28;20032;-63
2022/06/12 06:41:50;;;;;;;4.93;1.83;;;;;;;21.58;46.70;102195.28;5105180;28;20596;-63
2022/06/12 06:46:59;;;;;;;6.18;2.17;;;;;;;21.56;46.55;102194.56;5105152;28;20406;-63
2022/06/12 06:49:24;;;;;;;5.65;1.85;;;;;;;21.59;46.93;102207.81;5105819;28;20036;-64
2022/06/12 06:51:49;;;;;;;3.08;1.42;;;;;;;21.56;46.74;102196.44;5105629;28;20036;-65
2022/06/12 06:54:15;;;;;;;5.00;1.60;;;;;;;21.58;47.01;102208.81;5087602;28;20028;-63
2022/06/12 06:56:41;;;;;;;5.82;1.83;;;;;;;21.56;46.97;102204.56;5114539;28;20060;-63
2022/06/12 06:59:06;;;;;;;6.47;1.73;;;;;;;21.61;47.03;102213.06;5116827;28;20035;-64
2022/06/12 07:01:31;;;;;;;5.20;2.33;;;;;;;21.59;46.67;102212.38;5116524;28;20012;-63
2022/06/12 07:03:56;;;;;;;6.18;1.77;;;;;;;21.61;47.05;102213.06;5117729;28;20016;-62
2022/06/12 07:06:22;;;;;;;5.78;2.17;;;;;;;21.53;47.12;102204.84;5107252;28;20027;-63
2022/06/12 07:08:47;;;;;;;5.15;1.73;;;;;;;21.62;47.13;102217.44;5105883;28;20027;-63
2022/06/12 07:11:13;;;;;;;5.40;1.85;;;;;;;21.63;47.10;102213.75;5106268;28;20058;-63
2022/06/12 07:13:38;;;;;;;6.93;1.90;;;;;;;21.63;46.92;102217.31;5125313;28;20035;-63
2022/06/12 07:16:04;;;;;;;5.78;2.20;;;;;;;21.64;47.14;102218.16;5124924;28;20035;-63
2022/06/12 07:18:29;;;;;;;5.32;2.00;;;;;;;21.64;47.17;102218.16;5125398;28;20063;-63
2022/06/12 07:20:56;;;;;;;6.28;2.25;;;;;;;21.66;46.81;102216.13;5125206;28;20024;-63
2022/06/12 07:23:23;;;;;;;5.60;1.90;;;;;;;21.65;46.92;102223.41;5125524;28;20069;-63
2022/06/12 07:25:58;;;;;;;6.97;2.05;;;;;;;21.66;47.00;102213.44;5125440;28;20031;-63
2022/06/12 07:28:25;;;;;;;5.43;1.80;;;;;;;21.67;47.33;102216.00;5124952;28;20406;-63
2022/06/12 07:30:51;;;;;;;4.80;1.88;;;;;;;21.67;47.25;102217.88;5125200;28;20027;-63
2022/06/12 07:33:17;;;;;;;5.18;1.60;;;;;;;21.67;46.93;102217.88;5124652;28;20027;-63
2022/06/12 07:35:43;;;;;;;7.63;2.15;;;;;;;21.68;47.00;102224.97;5125068;28;20058;-63
2022/06/12 07:38:10;;;;;;;7.78;2.65;;;;;;;21.67;47.32;102221.41;5106561;28;20055;-63
2022/06/12 07:40:43;;;;;;;9.70;2.25;;;;;;;21.66;47.22;102218.84;5114317;28;20032;-63
2022/06/12 07:43:09;;;;;;;5.30;1.73;;;;;;;21.69;47.26;102230.22;5104838;28;20477;-63
2022/06/12 07:45:36;;;;;;;5.97;2.53;;;;;;;21.70;47.33;102222.94;5107957;28;20028;-63
2022/06/12 07:48:01;;;;;;;5.65;2.10;;;;;;;21.70;47.24;102226.50;5107841;28;20028;-63
2022/06/12 07:50:26;;;;;;;4.38;1.70;;;;;;;21.71;47.38;102221.97;5108105;28;20032;-63
2022/06/12 07:52:52;;;;;;;5.03;1.95;;;;;;;21.72;47.45;102223.66;5107864;28;20032;-63
2022/06/12 07:55:19;;;;;;;5.50;2.13;;;;;;;21.73;47.33;102214.53;5107814;28;20020;-63
2022/06/12 07:57:45;;;;;;;6.65;2.15;;;;;;;21.75;47.04;102215.22;5107960;28;20024;-63
2022/06/12 08:00:13;;;;;;;5.03;1.98;;;;;;;21.76;47.10;102214.22;5107890;28;20043;-63
2022/06/12 08:02:39;;;;;;;5.05;2.00;;;;;;;21.77;47.15;102213.19;5107554;28;20031;-63
2022/06/12 08:05:05;;;;;;;5.65;2.05;;;;;;;21.79;47.20;102210.31;5107763;28;20050;-63
2022/06/12 08:07:31;;;;;;;4.68;1.80;;;;;;;21.80;47.02;102212.06;5107683;28;20028;-62
2022/06/12 08:09:56;;;;;;;7.78;2.47;;;;;;;21.82;47.33;102215.44;5107951;28;20054;-63
2022/06/12 08:12:21;;;;;;;8.18;2.47;;;;;;;21.83;47.43;102215.28;5118309;28;20104;-63
2022/06/12 08:14:46;;;;;;;6.03;2.20;;;;;;;21.83;47.11;102209.84;5128129;28;20036;-63
2022/06/12 08:17:12;;;;;;;7.07;1.90;;;;;;;21.81;47.02;102206.47;5127579;28;20028;-63
2022/06/12 08:22:21;;;;;;;6.97;2.20;;;;;;;21.87;47.32;102213.09;5128213;28;20092;-63
2022/06/12 08:24:47;;;;;;;4.05;2.00;;;;;;;21.88;46.94;102214.84;5128221;28;20027;-63
2022/06/12 08:27:12;;;;;;;4.28;1.85;;;;;;;21.84;47.05;102195.34;5127540;28;20067;-63
2022/06/12 08:29:38;;;;;;;6.10;2.03;;;;;;;21.90;47.35;102208.22;5127894;28;20070;-63
2022/06/12 08:32:07;;;;;;;6.03;2.13;;;;;;;21.91;47.33;102209.94;5127489;28;20118;-63
2022/06/12 08:34:37;;;;;;;6.22;2.60;;;;;;;21.93;47.16;102204.38;5107620;28;20028;-63
2022/06/12 08:37:05;;;;;;;4.45;2.13;;;;;;;21.92;46.95;102200.81;5127657;28;20031;-63
2022/06/12 08:39:31;;;;;;;6.95;1.90;;;;;;;21.94;47.05;102200.66;5127576;28;20019;-63
2022/06/12 08:42:07;;;;;;;9.38;2.25;;;;;;;21.95;47.21;102205.06;5127264;28;20039;-63
2022/06/12 08:44:41;;;;;;;4.43;2.38;;;;;;;21.98;47.39;102202.03;5107425;28;20023;-63
2022/06/12 08:47:07;;;;;;;4.88;1.65;;;;;;;22.00;47.31;102202.72;5108584;28;20023;-63
2022/06/12 08:50:07;;;;;;;4.45;1.77;;;;;;;22.02;47.26;102197.16;5109321;28;20053;-63
2022/06/12 08:52:45;;;;;;;3.38;1.90;;;;;;;22.03;47.45;102199.69;5109191;28;20024;-63
2022/06/12 08:55:19;;;;;;;4.97;1.95;;;;;;;22.04;47.41;102198.69;5126144;28;20024;-63
2022/06/12 08:57:52;;;;;;;4.85;1.85;;;;;;;22.06;47.68;102187.72;5109289;28;20135;-64
2022/06/12 09:00:30;;;;;;;5.93;1.90;;;;;;;22.07;47.76;102192.13;5127144;28;20030;-63
2022/06/12 09:02:56;;;;;;;6.53;2.70;;;;;;;22.07;47.54;102189.41;5108389;28;20027;-64
2022/06/12 09:05:26;;;;;;;3.92;1.73;;;;;;;22.07;47.56;102179.41;5099308;28;20633;-63
2022/06/12 09:08:16;;;;;;;3.90;2.05;;;;;;;22.08;47.68;102180.25;5088788;28;20047;-62
2022/06/12 09:10:45;;;;;;;4.03;1.73;;;;;;;22.06;47.57;102175.00;5088216;28;20024;-63
2022/06/12 09:13:15;;;;;;;;;;;;;;;22.08;47.65;102177.56;5124477;28;20035;-61
2022/06/12 09:15:53;;;;;;;5.15;1.58;;;;;;;22.09;47.57;102168.41;5126936;28;19933;-63
2022/06/12 09:18:37;;;;;;;3.58;1.70;;;;;;;22.07;47.55;102162.31;5108218;28;20045;-63
2022/06/12 09:21:09;;;;;;;3.97;1.77;;;;;;;22.08;47.58;102159.44;5108575;28;20034;-63
2022/06/12 09:23:48;;;;;;;4.80;1.75;;;;;;;22.08;47.41;102158.59;5108786;28;20110;-63
2022/06/12 09:26:19;;;;;;;5.55;1.73;;;;;;;22.09;47.57;102163.00;5108301;28;20026;-63
2022/06/12 09:29:09;;;;;;;3.55;1.50;;;;;;;22.09;47.49;102157.56;5108538;28;20054;-63
2022/06/12 09:31:45;;;;;;;4.63;1.70;;;;;;;22.08;47.31;102156.72;5108022;28;20095;-63
2022/06/12 09:34:30;;;;;;;4.20;1.65;;;;;;;22.08;47.42;102166.72;5108513;28;20031;-63
2022/06/12 09:40:05;;;;;;;5.00;2.50;;;;;;;22.12;47.58;102149.13;5090600;28;20110;-63
2022/06/12 09:42:41;;;;;;;3.55;1.25;;;;;;;22.12;47.38;102163.56;5105622;28;20055;-63
2022/06/12 09:45:27;;;;;;;4.70;2.20;;;;;;;22.13;47.51;102154.44;5087793;28;20497;-63
2022/06/12 09:48:05;;;;;;;3.17;1.60;;;;;;;22.13;47.62;102157.16;5105522;28;20074;-63
2022/06/12 09:50:43;;;;;;;4.82;1.55;;;;;;;22.15;47.76;102162.41;5088194;28;20024;-62
2022/06/12 09:53:17;;;;;;;4.10;1.38;;;;;;;22.14;47.51;102158.84;5105953;28;20028;-63
2022/06/12 09:55:53;;;;;;;3.53;1.42;;;;;;;22.14;47.68;102153.44;5105787;28;20028;-63
2022/06/12 09:58:25;;;;;;;2.78;1.52;;;;;;;22.13;47.47;102162.56;5105824;28;20087;-63
2022/06/12 10:00:58;;;;;;;4.93;2.00;;;;;;;22.13;47.57;102150.88;5105764;28;20101;-63
2022/06/12 10:03:29;;;;;;;3.85;1.67;;;;;;;22.14;47.40;102152.59;5087176;28;20028;-63
2022/06/12 10:06:05;;;;;;;2.78;1.65;;;;;;;22.14;47.70;102155.28;5089782;28;20024;-63
2022/06/12 10:08:52;;;;;;;4.07;1.85;;;;;;;22.05;47.50;102143.53;5087580;28;20031;-63
2022/06/12 10:11:37;;;;;;;3.95;1.80;;;;;;;22.13;47.67;102154.44;5089151;28;20028;-63
2022/06/12 10:14:28;;;;;;;5.72;1.55;;;;;;;22.12;47.66;102150.03;5107928;28;20665;-63
2022/06/12 10:17:09;;;;;;;4.45;1.60;;;;;;;22.09;47.82;102146.75;5125126;28;20023;-63
2022/06/12 10:19:43;;;;;;;4.10;1.40;;;;;;;22.11;47.86;102161.00;5107829;28;20091;-63
2022/06/12 10:22:31;;;;;;;3.33;1.75;;;;;;;22.11;47.63;102153.72;5125827;28;20023;-63
2022/06/12 10:24:58;;;;;;;3.38;1.58;;;;;;;22.11;47.67;102150.16;5126026;28;20024;-63
2022/06/12 10:27:24;;;;;;;3.20;1.73;;;;;;;22.14;47.84;102144.47;5125333;28;20023;-63
2022/06/12 10:30:02;;;;;;;4.40;2.45;;;;;;;22.15;47.87;102149.72;5090964;28;20466;-64
2022/06/12 10:32:40;;;;;;;4.07;1.85;;;;;;;22.17;47.55;102154.94;5125059;28;20043;-63
2022/06/12 10:35:18;;;;;;;3.67;1.58;;;;;;;22.18;47.79;102143.97;5106853;28;20023;-63
2022/06/12 10:37:43;;;;;;;4.45;1.77;;;;;;;22.19;47.71;102148.38;5110877;28;20044;-63
2022/06/12 10:40:18;;;;;;;3.00;1.58;;;;;;;22.21;47.64;102146.34;5113013;28;20490;-63
2022/06/12 10:42:48;;;;;;;3.63;1.60;;;;;;;22.18;47.54;102137.72;5107117;28;20374;-63
2022/06/12 10:45:26;;;;;;;3.33;1.45;;;;;;;22.23;47.42;102148.06;5125422;28;20024;-64
2022/06/12 10:47:53;;;;;;;5.18;1.63;;;;;;;22.21;47.60;102135.50;5117194;28;20028;-63
2022/06/12 10:50:34;;;;;;;4.75;1.80;;;;;;;22.21;47.42;102137.38;5087154;28;20024;-63
2022/06/12 10:53:14;;;;;;;2.85;1.40;;;;;;;22.24;47.78;102137.06;5104983;28;20020;-64
2022/06/12 10:55:49;;;;;;;3.25;1.58;;;;;;;22.26;47.44;102145.00;5088577;28;20438;-63
2022/06/12 10:58:20;;;;;;;5.85;2.42;;;;;;;22.26;47.67;102135.06;5090095;28;20059;-64
2022/06/12 11:00:47;;;;;;;3.17;1.33;;;;;;;22.26;47.33;102143.19;5125686;28;20023;-63
2022/06/12 11:03:22;;;;;;;4.97;1.75;;;;;;;22.27;47.45;102144.03;5124896;28;20032;-63
2022/06/12 11:06:24;;;;;;;3.13;1.50;;;;;;;22.26;47.74;102143.19;5090257;28;20078;-63
2022/06/12 11:08:56;;;;;;;5.53;2.05;;;;;;;22.25;47.58;102129.78;5091697;28;20032;-63
2022/06/12 11:11:31;;;;;;;3.92;1.60;;;;;;;22.27;47.76;102144.88;5104621;28;20054;-63
2022/06/12 11:14:20;;;;;;;3.78;1.50;;;;;;;22.30;47.48;102131.00;5116664;28;20049;-64
2022/06/12 11:16:55;;;;;;;4.43;1.60;;;;;;;22.32;47.54;102130.84;5108042;28;20094;-63
2022/06/12 11:19:32;;;;;;;4.25;1.00;;;;;;;22.34;47.38;102143.19;5107344;28;20020;-64
2022/06/12 11:22:09;;;;;;;3.38;1.77;;;;;;;22.34;47.48;102136.94;5108669;28;20031;-63
2022/06/12 11:24:47;;;;;;;3.88;1.77;;;;;;;22.36;47.54;102135.78;5091018;28;20037;-64
2022/06/12 11:27:37;;;;;;;5.22;1.70;;;;;;;22.39;47.42;102130.03;5091061;28;20031;-64
2022/06/12 11:30:30;;;;;;;5.70;2.25;;;;;;;22.40;47.49;102126.31;5108873;28;20020;-64
2022/06/12 11:33:56;;;;;;;4.97;1.55;;;;;;;22.43;47.42;102141.41;5108146;28;20032;-64
2022/06/12 11:36:24;;;;;;;3.42;1.10;;;;;;;22.43;47.55;102146.81;5044990;28;20534;-64
2022/06/12 11:38:59;;;;;;;3.50;1.42;;;;;;;22.43;47.50;102139.53;5045853;28;20038;-64
2022/06/12 11:41:49;;;;;;;3.25;1.50;;;;;;;22.42;47.28;102135.09;5045682;28;20038;-64
2022/06/12 11:44:56;;;;;;;3.63;1.40;;;;;;;22.43;47.71;102130.56;5045882;28;20041;-64
2022/06/12 11:47:39;;;;;;;4.90;1.50;;;;;;;22.43;47.61;102133.28;4966486;29;20196;-63
2022/06/12 11:50:16;;;;;;;2.92;1.60;;;;;;;22.43;47.72;102128.69;4967605;29;20610;-64
2022/06/12 11:52:47;;;;;;;2.92;1.60;;;;;;;22.42;47.77;102132.41;4951140;29;20042;-64
2022/06/12 11:55:17;;;;;;;3.72;1.48;;;;;;;22.44;47.60;102133.09;4951480;29;20047;-64
2022/06/12 11:58:00;;;;;;;3.78;1.30;;;;;;;22.45;47.41;102125.81;4967161;29;20035;-64
2022/06/12 12:00:44;;;;;;;2.97;1.50;;;;;;;22.44;47.82;102127.69;4967414;29;20242;-64
2022/06/12 12:03:18;;;;;;;5.18;1.60;;;;;;;22.43;47.95;102127.84;4966730;29;20027;-64
2022/06/12 12:06:05;;;;;;;3.75;1.30;;;;;;;22.43;47.78;102119.72;4962092;28;20039;-64
2022/06/12 12:09:02;;;;;;;2.53;1.38;;;;;;;22.43;47.86;102122.44;5025500;28;20043;-64
2022/06/12 12:11:31;;;;;;;3.08;1.60;;;;;;;22.42;47.78;102118.84;5025314;28;20105;-64